Tiempo atmosférico en la estación meteorológica de Naut Aran, Arties, Lleida (1185 m.)



Fecha
DESCASC
Temp. máxima en grados centígrados (hora)
DESCASC
Temp. mínima en grados centígrados (hora)
DESCASC
Temp. media en grados centígrados
DESCASC
Racha de viento máxima en m/sg (hora)
DESCASC
Velocidad máxima media en intervalos de 10 minutos(hora)
DESCASC
Precipitaciones diarias en mm
DESCASC
Precipitaciones de 00:00 a 06:00 en mm
DESCASC
Precipitaciones de 06:00 a 12:00 en mm
DESCASC
Precipitaciones de 12:00 a 18:00 en mm
DESCASC
Precipitaciones de 18:00 a 24:00 en mm
DESCASC
16-06-2019 24.9 (16:20) 4.9 (06:30) 14.9 7.5 (14:20) 2.5 (14:00) 0 0 0 0 0
15-06-2019 17.5 (12:50) 10 (23:59) 13.8 11.11 (14:10) 3.61 (14:00) 0.4 0.4 0 0 0
14-06-2019 22.7 (14:00) 10.1 (03:50) 16.4 7.22 (14:40) 3.33 (00:50) 4.4 0 0 4.4 0
13-06-2019 23.6 (17:00) 4.3 (00:00) 14 8.33 (14:10) 2.78 (14:10) 0 0 0 0 0
12-06-2019 19.2 (16:00) 0.7 (00:00) 10 6.94 (14:20) 1.94 (14:40) 0 0 0 0 0
11-06-2019 9.5 (14:50) 3.3 (00:00) 6.4 6.11 (15:50) 2.22 (15:50) 5.1 0.6 1.3 2.6 0.6
10-06-2019 14.5 (13:40) 7.4 (00:00) 11 8.06 (16:00) 2.78 (14:50) 0.3 0 0.3 0 0
09-06-2019 23 (14:20) 11.2 (00:00) 17.1 7.5 (21:50) 2.78 (06:50) 3.2 2.8 0.4 0 0
08-06-2019 24.4 (16:50) 4.6 (00:00) 14.5 8.61 (14:20) 1.94 (18:10) 0 0 0 0 0
07-06-2019 21 (16:00) 8.9 (00:00) 14.9 11.67 (09:50) 3.33 (00:50) 0.6 0 0.6 0 0
06-06-2019 18.2 (16:10) 4.3 (00:00) 11.3 14.72 (20:30) 3.06 (22:20) 0 0 0 0 0
05-06-2019 16.1 (11:20) 6.7 (00:00) 11.4 8.33 (12:10) 3.33 (12:00) 12 0 0.4 11.6 0
04-06-2019 28.7 (16:50) 13.5 (00:00) 21.1 8.61 (17:20) 2.5 (17:00) 0 0 0 0 0
03-06-2019 28.8 (16:50) 13.5 (00:00) 21.1 6.39 (17:50) 2.5 (04:10) 0 0 0 0 0
02-06-2019 30.3 (16:00) 11.6 (00:00) 20.9 6.11 (17:50) 1.94 (17:20) 0 0 0 0 0
01-06-2019 29.2 (15:30) 8.5 (00:00) 18.9 7.22 (17:00) 2.22 (16:30) 0 0 0 0 0
31-05-2019 26.4 (15:40) 5.8 (00:00) 16.1 8.33 (18:10) 2.5 (15:50) 0 0 0 0 0
30-05-2019 23.2 (16:40) 3.9 (00:00) 13.6 6.67 (13:10) 2.5 (14:30) 0 0 0 0 0
29-05-2019 15.7 (16:40) 4.8 (00:00) 10.3 7.5 (16:20) 2.22 (17:10) 2.2 1.9 0.3 0 0
28-05-2019 16.9 (15:50) 6.2 (00:00) 11.5 7.5 (22:20) 2.5 (14:50) 0.2 0.1 0.1 0 0
27-05-2019 18.4 (13:40) 7.5 (00:00) 12.9 6.67 (15:20) 2.5 (15:00) 0.4 0 0 0 0.4
26-05-2019 14 (14:00) 6.9 (00:00) 10.5 5.83 (16:00) 2.22 (17:20) 0.9 0.9 0 0 0
25-05-2019 12.3 (13:30) 7.9 (00:00) 10.1 6.67 (15:10) 1.94 (13:30) 11.2 7.1 2.9 0.3 0.9
24-05-2019 11.4 (00:40) 6.5 (00:00) 8.9 5.83 (06:40) 2.22 (06:50) 29.7 2.8 22.9 0.8 3.2
23-05-2019 23.5 (13:40) 5.9 (00:00) 14.7 7.78 (18:20) 2.5 (18:20) 4.7 0 0 0 4.7
22-05-2019 22 (15:30) 6.2 (00:00) 14.1 7.22 (18:30) 2.5 (17:40) 0 0 0 0 0

Gráficas

Temp. máximas Temp. mínimas Temp. medias Precipitaciones Rachas de viento máximas Velocidades máximas media en intervalos de 10 minutos

Datos horarios

Fecha y hora oficial Temperatura (ºC) Velocidad del viento (km/h) Dirección del viento Racha (km/h) Dirección de racha Precipitación (mm) Presión (hPa) Tendencia (hPa) Humedad (%)
2019-06-20 23:00:00 13.5 0 Calma 9 Sudeste 0 -- -- 94
2019-06-20 22:00:00 13.8 2 Sur 12 Oeste 1 -- -- 94
2019-06-20 21:00:00 14.4 0 Calma 12 Oeste 0 -- -- 91
2019-06-20 20:00:00 14.9 0 Calma 25 Sudoeste 0.1 -- -- 89
2019-06-20 19:00:00 15.4 4 Oeste 15 Oeste 0.2 -- -- 89
2019-06-20 18:00:00 15.4 0 Calma 11 Sudoeste 4 -- -- 92
2019-06-20 17:00:00 16.4 4 Sudoeste 16 Sudoeste 0 -- -- 78
2019-06-20 16:00:00 17.7 4 Oeste 22 Oeste 0.1 -- -- 74
2019-06-20 15:00:00 20.6 4 Sudoeste 17 Sudoeste 0 -- -- 64
2019-06-20 14:00:00 20 5 Sudoeste 17 Noroeste 0 -- -- 67
2019-06-20 13:00:00 20.3 5 Sudoeste 15 Sudoeste 0 -- -- 67
2019-06-20 12:00:00 18.6 5 Sudoeste 18 Sudoeste 0 -- -- 73
2019-06-20 11:00:00 16.4 5 Oeste 15 Oeste 0 -- -- 86
2019-06-20 10:00:00 15.4 4 Oeste 13 Oeste 0 -- -- 91
2019-06-20 09:00:00 14 2 Oeste 11 Oeste 0 -- -- 95
2019-06-20 08:00:00 13.6 3 Sudeste 8 Este 1.2 -- -- 93
2019-06-20 07:00:00 14.1 3 Sudeste 9 Nordeste 0 -- -- 82
2019-06-20 06:00:00 13.2 3 Nordeste 10 Este 0 -- -- 88
2019-06-20 05:00:00 13 5 Nordeste 24 Este 0 -- -- 88
2019-06-20 04:00:00 14.3 6 Este 12 Nordeste 0 -- -- 82
2019-06-20 03:00:00 15 5 Este 9 Este 0 -- -- 83
2019-06-20 02:00:00 14.8 4 Este 9 Nordeste 0 -- -- 87
2019-06-20 01:00:00 14.9 2 Nordeste 5 Nordeste 0 -- -- 88
2019-06-20 00:00:00 15.3 2 Nordeste 7 Norte 0 -- -- 84
2019-06-19 23:00:00 16.8 0 Calma 14 Noroeste 0 -- -- 79
2019-06-19 22:00:00 17.3 4 Sudoeste 19 Sudoeste 0 -- -- 74
2019-06-19 21:00:00 18.4 5 Sudoeste 21 Sudoeste 0 -- -- 70
2019-06-19 20:00:00 20.2 7 Sudoeste 31 Oeste 0 -- -- 63
2019-06-19 19:00:00 23.2 10 Sudoeste 27 Sudoeste 0 -- -- 53
2019-06-19 18:00:00 26.3 6 Sudoeste 22 Oeste 0 -- -- 48
2019-06-19 17:00:00 25 5 Sudoeste 21 Oeste 0 -- -- 42
2019-06-19 16:00:00 26.5 4 Sudoeste 20 Sudoeste 0 -- -- 35
2019-06-19 15:00:00 26.9 4 Sudoeste 21 Sudoeste 0 -- -- 34
2019-06-19 14:00:00 26.8 4 Oeste 20 Sudoeste 0 -- -- 33
2019-06-19 13:00:00 25.8 4 Oeste 18 Sur 0 -- -- 34
2019-06-19 12:00:00 24.7 4 Oeste 15 Sudoeste 0 -- -- 45
2019-06-19 11:00:00 22.6 4 Sudoeste 12 Oeste 0 -- -- 50
2019-06-19 10:00:00 19.5 3 Sudoeste 6 Oeste 0 -- -- 57
2019-06-19 09:00:00 16.3 0 Calma 9 Nordeste 0 -- -- 65
2019-06-19 08:00:00 13.4 0 Calma 10 Nordeste 0 -- -- 70
2019-06-19 07:00:00 11.2 0 Calma 12 Este 0 -- -- 71
2019-06-19 06:00:00 14.2 6 Este 14 Este 0 -- -- 59
2019-06-19 05:00:00 11.2 0 Calma 8 Nordeste 0 -- -- 70
2019-06-19 04:00:00 11.7 0 Calma 11 Este 0 -- -- 64
2019-06-19 03:00:00 12.9 0 Calma 12 Nordeste 0 -- -- 59
2019-06-19 02:00:00 13.8 3 Este 12 Sudeste 0 -- -- 60
2019-06-19 01:00:00 14.7 2 Nordeste 22 Nordeste 0 -- -- 57
2019-06-19 00:00:00 17.3 11 Este 20 Este 0 -- -- 53
2019-06-18 23:00:00 18.3 8 Este 18 Este 0 -- -- 53
2019-06-18 22:00:00 18.2 4 Nordeste 14 Oeste 0 -- -- 54
2019-06-18 21:00:00 22.4 0 Calma 19 Oeste 0 -- -- 44
2019-06-18 20:00:00 25 3 Oeste 20 Nordeste 0 -- -- 35
2019-06-18 19:00:00 26.8 4 Nordeste 23 Oeste 0 -- -- 33
2019-06-18 18:00:00 28.1 6 Sudoeste 23 Oeste 0 -- -- 33
2019-06-18 17:00:00 27.9 7 Oeste 25 Sur 0 -- -- 35
2019-06-18 16:00:00 25.8 5 Oeste 24 Sudoeste 0 -- -- 34
2019-06-18 15:00:00 26.8 4 Oeste 18 Oeste 0 -- -- 36
2019-06-18 14:00:00 28.3 7 Sudoeste 22 Sudoeste 0 -- -- 35
2019-06-18 13:00:00 27.4 3 Oeste 12 Oeste 0 -- -- 36
2019-06-18 12:00:00 24.1 0 Calma 9 Este 0 -- -- 56
2019-06-18 11:00:00 22.5 2 Sudeste 10 Este 0 -- -- 55
2019-06-18 10:00:00 20 0 Calma 12 Este 0 -- -- 65
2019-06-18 09:00:00 18.3 4 Este 17 Sudeste 0 -- -- 64
2019-06-18 08:00:00 17.3 5 Este 17 Este 0 -- -- 61
2019-06-18 07:00:00 16.5 5 Este 15 Este 0 -- -- 61
2019-06-18 06:00:00 16.3 5 Este 19 Sudeste 0 -- -- 61
2019-06-18 05:00:00 15.1 4 Este 17 Sudeste 0 -- -- 64
2019-06-18 04:00:00 15.9 6 Este 18 Sudeste 0 -- -- 60
2019-06-18 03:00:00 14.4 6 Este 16 Este 0 -- -- 65
2019-06-18 02:00:00 12.8 2 Este 10 Este 0 -- -- 72
2019-06-18 01:00:00 15.4 5 Este 15 Este 0 -- -- 65
2019-06-18 00:00:00 15.5 6 Este 12 Este 0 -- -- 69
2019-06-17 23:00:00 15.4 3 Este 10 Este 0 -- -- 72
2019-06-17 22:00:00 17.1 2 Este 9 Nordeste 0 -- -- 66
2019-06-17 21:00:00 21.1 3 Sudoeste 21 Sudoeste 0 -- -- 49
2019-06-17 20:00:00 24.2 5 Sudoeste 18 Sudoeste 0 -- -- 45
2019-06-17 19:00:00 26.8 6 Sudoeste 18 Oeste 0 -- -- 41
2019-06-17 18:00:00 23.7 0 Calma 7 Sudeste 0 -- -- 53
2019-06-17 17:00:00 24 2 Sur 10 Sudoeste 0 -- -- 42
2019-06-17 16:00:00 24.1 3 Sudoeste 10 Oeste 0 -- -- 42
2019-06-17 15:00:00 26.3 4 Sudoeste 15 Sudoeste 0 -- -- 31
2019-06-17 14:00:00 27.5 4 Oeste 15 Sudoeste 0 -- -- 32
2019-06-17 13:00:00 26.5 5 Sudoeste 15 Sudoeste 0 -- -- 32
2019-06-17 12:00:00 25.4 4 Sudoeste 11 Sudoeste 0 -- -- 36
2019-06-17 11:00:00 22.9 5 Sudeste 9 Sudeste 0 -- -- 38
2019-06-17 10:00:00 19.6 0 Calma 4 Oeste 0 -- -- 59
2019-06-17 09:00:00 15.2 0 Calma 8 Este 0 -- -- 70
2019-06-17 08:00:00 12.2 0 Calma 7 Este 0 -- -- 78
2019-06-17 07:00:00 9.4 3 Nordeste 17 Este 0 -- -- 84
2019-06-17 06:00:00 9.6 4 Este 13 Este 0 -- -- 86
2019-06-17 05:00:00 9.7 4 Nordeste 8 Nordeste 0 -- -- 90
2019-06-17 04:00:00 10.8 3 Este 14 Este 0 -- -- 85
2019-06-17 03:00:00 11.3 6 Nordeste 14 Este 0 -- -- 87
2019-06-17 02:00:00 11.5 2 Nordeste 11 Este 0 -- -- 88
2019-06-17 01:00:00 12 5 Este 11 Nordeste 0 -- -- 87
2019-06-17 00:00:00 12.1 3 Nordeste 7 Sudeste 0 -- -- 86
2019-06-16 23:00:00 13.6 2 Nordeste 11 Norte 0 -- -- 80
2019-06-16 22:00:00 16.2 0 Calma 20 Sudoeste 0 -- -- 66
2019-06-16 21:00:00 18 6 Sudoeste 20 Sudoeste 0 -- -- 58
2019-06-16 20:00:00 20.2 6 Sudoeste 25 Sudoeste 0 -- -- 51
2019-06-16 19:00:00 22.9 6 Oeste 25 Oeste 0 -- -- 45
2019-06-16 18:00:00 24 6 Sudoeste 26 Sudoeste 0 -- -- 42
2019-06-16 17:00:00 24.5 7 Sudoeste 23 Oeste 0 -- -- 40
2019-06-16 16:00:00 24.7 7 Sudoeste 24 Sudoeste 0 -- -- 41
2019-06-16 15:00:00 23.9 8 Sudoeste 27 Sudoeste 0 -- -- 39
2019-06-16 14:00:00 22.6 9 Sudoeste 24 Sudoeste 0 -- -- 39
2019-06-16 13:00:00 21.9 7 Oeste 21 Oeste 0 -- -- 44
2019-06-16 12:00:00 19.9 5 Sudoeste 14 Sudoeste 0 -- -- 48
2019-06-16 11:00:00 17.5 4 Sudoeste 9 Sudoeste 0 -- -- 54
2019-06-16 10:00:00 14 2 Sudoeste 5 Sudoeste 0 -- -- 63
2019-06-16 09:00:00 10 2 Sudoeste 4 Noroeste 0 -- -- 81
2019-06-16 08:00:00 8 0 Calma 9 Este 0 -- -- 88
2019-06-16 07:00:00 5.5 4 Nordeste 9 Este 0 -- -- 95
2019-06-16 06:00:00 5.7 2 Este 8 Este 0 -- -- 94
2019-06-16 05:00:00 5.7 3 Este 10 Este 0 -- -- 94
2019-06-16 04:00:00 6 0 Calma 4 Nordeste 0 -- -- 94
2019-06-16 03:00:00 7.2 0 Calma 9 Nordeste 0 -- -- 92
2019-06-16 02:00:00 8.1 3 Nordeste 6 Este 0 -- -- 90
2019-06-16 01:00:00 10 2 Este 6 Sudeste 0 -- -- 85
2019-06-16 00:00:00 10 0 Calma 9 Sudoeste 0 -- -- 84
2019-06-15 23:00:00 10.4 2 Oeste 10 Oeste 0 -- -- 81
2019-06-15 22:00:00 10.7 4 Oeste 18 Sudoeste 0 -- -- 79
2019-06-15 21:00:00 11.2 6 Sudoeste 19 Sudoeste 0 -- -- 78
2019-06-15 20:00:00 11.7 6 Sudoeste 20 Sudoeste 0 -- -- 75
2019-06-15 19:00:00 12.6 7 Sudoeste 22 Oeste 0 -- -- 72
2019-06-15 18:00:00 13.2 9 Sudoeste 24 Sudoeste 0 -- -- 71
2019-06-15 17:00:00 14.4 10 Sudoeste 28 Sudoeste 0 -- -- 66
2019-06-15 16:00:00 16.5 11 Sudoeste 37 Sudoeste 0 -- -- 63
2019-06-15 15:00:00 15.8 12 Sudoeste 40 Sudoeste 0 -- -- 65
2019-06-15 14:00:00 16.4 13 Sudoeste 33 Sudoeste 0 -- -- 64
2019-06-15 13:00:00 17.2 8 Sudoeste 25 Sudoeste 0 -- -- 63
2019-06-15 12:00:00 17 8 Sudoeste 24 Sudoeste 0 -- -- 64
2019-06-15 11:00:00 15.6 6 Sudoeste 22 Sudoeste 0 -- -- 69
2019-06-15 10:00:00 15.1 5 Sudoeste 15 Sudoeste 0 -- -- 74
2019-06-15 09:00:00 12.7 3 Sudoeste 16 Sudoeste 0 -- -- 89
2019-06-15 08:00:00 11.5 0 Calma 4 Sudoeste 0 -- -- 94
2019-06-15 07:00:00 10.9 0 Calma 6 Sudoeste 0 -- -- 94
2019-06-15 06:00:00 10.9 0 Calma 12 Oeste 0.1 -- -- 95
2019-06-15 05:00:00 10.9 0 Calma 14 Sudoeste 0.3 -- -- 94
2019-06-15 04:00:00 11.5 2 Sur 23 Sudoeste 0 -- -- 90
2019-06-15 03:00:00 11.8 6 Sudoeste 22 Oeste 0 -- -- 93
2019-06-15 02:00:00 10.5 0 Calma 11 Norte 0 -- -- 92
2019-06-15 01:00:00 11.1 3 Este 11 Este 0 -- -- 92
2019-06-15 00:00:00 11.3 4 Este 9 Nordeste 0 -- -- 94
2019-06-14 23:00:00 12 0 Calma 5 Sudeste 0 -- -- 94
2019-06-14 22:00:00 12.3 0 Calma 6 Nordeste 0 -- -- 91
2019-06-14 21:00:00 14.3 0 Calma 9 Oeste 0 -- -- 82
2019-06-14 20:00:00 16.9 3 Sudoeste 14 Oeste 0 -- -- 74
2019-06-14 19:00:00 18.3 5 Sudoeste 17 Oeste 0 -- -- 70
2019-06-14 18:00:00 18.3 4 Sudoeste 16 Oeste 0 -- -- 81
2019-06-14 17:00:00 15.2 5 Nordeste 21 Sudoeste 3.6 -- -- 89
2019-06-14 16:00:00 16.8 2 Sudoeste 24 Oeste 0.8 -- -- 79
2019-06-14 15:00:00 20 6 Sudoeste 26 Sudoeste 0 -- -- 61
2019-06-14 14:00:00 21.3 5 Oeste 15 Sudoeste 0 -- -- 57
2019-06-14 13:00:00 17.1 0 Calma 12 Oeste 0 -- -- 69
2019-06-14 12:00:00 17.7 2 Este 10 Sudoeste 0 -- -- 63
2019-06-14 11:00:00 15.7 5 Oeste 19 Noroeste 0 -- -- 72
2019-06-14 10:00:00 14.9 3 Oeste 13 Sudoeste 0 -- -- 76
2019-06-14 09:00:00 12.9 3 Nordeste 14 Sudoeste 0 -- -- 82
2019-06-14 08:00:00 12.4 5 Nordeste 12 Este 0 -- -- 84
2019-06-14 07:00:00 11.2 0 Calma 5 Este 0 -- -- 93
2019-06-14 06:00:00 11.1 3 Sudoeste 13 Sudoeste 0 -- -- 94
2019-06-14 05:00:00 10.8 0 Calma 9 Este 0 -- -- 91
2019-06-14 04:00:00 10.2 0 Calma 5 Sudeste 0 -- -- 75
2019-06-14 03:00:00 11.4 0 Calma 12 Este 0 -- -- 65
2019-06-14 02:00:00 13.2 4 Nordeste 24 Este 0 -- -- 58
2019-06-14 01:00:00 13.4 12 Nordeste 22 Este 0 -- -- 56
2019-06-14 00:00:00 13.2 0 Calma 12 Nordeste 0 -- -- 61
2019-06-13 23:00:00 14.7 4 Este 13 Nordeste 0 -- -- 56
2019-06-13 22:00:00 15.7 2 Este 16 Este 0 -- -- 55
2019-06-13 21:00:00 18.3 0 Calma 14 Oeste 0 -- -- 45
2019-06-13 20:00:00 20.3 3 Oeste 21 Sudoeste 0 -- -- 41
2019-06-13 19:00:00 22.3 4 Sudoeste 23 Sudoeste 0 -- -- 39
2019-06-13 18:00:00 22.9 0 Calma 28 Sudoeste 0 -- -- 38
2019-06-13 17:00:00 23.4 3 Sur 14 Este 0 -- -- 39
2019-06-13 16:00:00 21.3 7 Nordeste 22 Oeste 0 -- -- 40
2019-06-13 15:00:00 19.7 5 Oeste 30 Oeste 0 -- -- 41
2019-06-13 14:00:00 20.2 7 Noroeste 24 Noroeste 0 -- -- 42
2019-06-13 13:00:00 18.6 5 Noroeste 18 Sudoeste 0 -- -- 42
2019-06-13 12:00:00 20.2 7 Oeste 20 Oeste 0 -- -- 44
2019-06-13 11:00:00 17.7 3 Sudeste 17 Nordeste 0 -- -- 47
2019-06-13 10:00:00 15.4 4 Nordeste 18 Nordeste 0 -- -- 52
2019-06-13 09:00:00 14.2 5 Nordeste 13 Este 0 -- -- 53
2019-06-13 08:00:00 12.5 2 Sudeste 17 Sudeste 0 -- -- 56
2019-06-13 07:00:00 8.3 6 Este 14 Este 0 -- -- 69
2019-06-13 06:00:00 6.1 5 Este 13 Nordeste 0 -- -- 78
2019-06-13 05:00:00 4.3 0 Calma 6 Sur 0 -- -- 85
2019-06-13 04:00:00 5.5 4 Este 12 Nordeste 0 -- -- 77
2019-06-13 03:00:00 6.9 6 Este 16 Este 0 -- -- 69
2019-06-13 02:00:00 4.9 0 Calma 11 Este 0 -- -- 83
2019-06-13 01:00:00 5.6 3 Este 14 Este 0 -- -- 82
2019-06-13 00:00:00 7.4 5 Este 15 Nordeste 0 -- -- 78
2019-06-12 23:00:00 7.4 6 Este 13 Nordeste 0 -- -- 84
2019-06-12 22:00:00 8.7 2 Nordeste 12 Oeste 0 -- -- 78
2019-06-12 21:00:00 11.3 5 Sudoeste 19 Sudoeste 0 -- -- 63
2019-06-12 20:00:00 13.1 5 Sudoeste 17 Sudoeste 0 -- -- 54
2019-06-12 19:00:00 14.1 4 Sudoeste 14 Sur 0 -- -- 44
2019-06-12 18:00:00 16 5 Sudoeste 19 Sur 0 -- -- 37
2019-06-12 17:00:00 17.4 4 Sudoeste 21 Sudoeste 0 -- -- 35
2019-06-12 16:00:00 19.2 4 Sudoeste 21 Oeste 0 -- -- 36
2019-06-12 15:00:00 17 7 Sudoeste 25 Sudoeste 0 -- -- 34
2019-06-12 14:00:00 17.6 5 Sudoeste 17 Oeste 0 -- -- 38
2019-06-12 13:00:00 16.5 5 Oeste 18 Noroeste 0 -- -- 42
2019-06-12 12:00:00 15.5 6 Sudoeste 14 Sudoeste 0 -- -- 49
2019-06-12 11:00:00 13.8 2 Oeste 12 Sudoeste 0 -- -- 57
2019-06-12 10:00:00 9.7 2 Sudoeste 5 Oeste 0 -- -- 72
2019-06-12 09:00:00 5.5 2 Sudoeste 5 Sudoeste 0 -- -- 87
2019-06-12 08:00:00 3.5 0 Calma 7 Este 0 -- -- 93
2019-06-12 07:00:00 0.9 0 Calma 8 Norte 0 -- -- 96
2019-06-12 06:00:00 1.3 3 Este 13 Este 0 -- -- 96
2019-06-12 05:00:00 0.9 4 Nordeste 9 Nordeste 0 -- -- 96
2019-06-12 04:00:00 1.2 0 Calma 10 Nordeste 0 -- -- 96
2019-06-12 03:00:00 2.1 5 Nordeste 11 Nordeste 0 -- -- 95
2019-06-12 02:00:00 2.1 3 Nordeste 10 Nordeste 0 -- -- 95
2019-06-12 01:00:00 2.8 4 Este 10 Nordeste 0 -- -- 96
2019-06-12 00:00:00 3.3 3 Nordeste 9 Este 0 -- -- 95
2019-06-11 23:00:00 4.9 0 Calma 4 Este 0 -- -- 94
2019-06-11 22:00:00 5.4 0 Calma 3 Noroeste 0.3 -- -- 92
2019-06-11 21:00:00 5.9 0 Calma 7 Sudoeste 0 -- -- 90
2019-06-11 20:00:00 6.7 0 Calma 6 Sudoeste 0 -- -- 88
2019-06-11 19:00:00 7.1 0 Calma 6 Sudoeste 0.3 -- -- 87
2019-06-11 18:00:00 5.8 2 Sudoeste 16 Sudoeste 1.3 -- -- 91
2019-06-11 17:00:00 6.1 5 Sudoeste 21 Sudoeste 0.9 -- -- 88
2019-06-11 16:00:00 7 8 Sudoeste 22 Sudoeste 0.3 -- -- 85
2019-06-11 15:00:00 8.9 6 Sudoeste 18 Sudoeste 0 -- -- 78
2019-06-11 14:00:00 8.8 3 Sudoeste 14 Oeste 0 -- -- 81
2019-06-11 13:00:00 7.9 3 Oeste 15 Sudoeste 0.1 -- -- 86
2019-06-11 12:00:00 7.1 4 Oeste 15 Noroeste 0 -- -- 88
2019-06-11 11:00:00 6.3 2 Sudoeste 11 Oeste 0.2 -- -- 93
2019-06-11 10:00:00 5.6 3 Sudoeste 10 Sudoeste 0.2 -- -- 93
2019-06-11 09:00:00 5.5 2 Oeste 13 Oeste 0.4 -- -- 91
2019-06-11 08:00:00 6 2 Sudoeste 17 Oeste 0.5 -- -- 91
2019-06-11 07:00:00 6.3 3 Sudoeste 16 Sudoeste 0 -- -- 93
2019-06-11 06:00:00 6.6 0 Calma 13 Oeste 0 -- -- 97
2019-06-11 05:00:00 6.9 3 Sudoeste 11 Sudoeste 0.2 -- -- 97
2019-06-11 04:00:00 7 0 Calma 4 Este 0.2 -- -- 97
2019-06-11 03:00:00 6.9 0 Calma 8 Oeste 0.1 -- -- 96
2019-06-11 02:00:00 7.1 0 Calma 9 Sudoeste 0.1 -- -- 95
2019-06-11 01:00:00 7.4 0 Calma 5 Oeste 0 -- -- 94
2019-06-11 00:00:00 7.6 2 Oeste 10 Oeste 0 -- -- 93
2019-06-10 23:00:00 7.8 0 Calma 12 Oeste 0 -- -- 90
2019-06-10 22:00:00 8 2 Oeste 11 Oeste 0 -- -- 86
2019-06-10 21:00:00 8.2 4 Oeste 16 Oeste 0 -- -- 85
2019-06-10 20:00:00 8.8 4 Sudoeste 20 Sudoeste 0 -- -- 82
2019-06-10 19:00:00 9.1 6 Sudoeste 24 Sudoeste 0 -- -- 81
2019-06-10 18:00:00 9.9 7 Sudoeste 25 Sudoeste 0 -- -- 78
2019-06-10 17:00:00 10.4 8 Sudoeste 24 Sudoeste 0 -- -- 76
2019-06-10 16:00:00 12.3 7 Sudoeste 29 Sudoeste 0 -- -- 73
2019-06-10 15:00:00 13.5 8 Sudoeste 27 Sudoeste 0 -- -- 72
2019-06-10 14:00:00 12.3 9 Sudoeste 24 Sudoeste 0 -- -- 73
2019-06-10 13:00:00 13.3 5 Oeste 22 Oeste 0 -- -- 75
2019-06-10 12:00:00 12.1 5 Oeste 18 Sudoeste 0 -- -- 74
2019-06-10 11:00:00 11.7 6 Sudoeste 19 Sudoeste 0 -- -- 79
2019-06-10 10:00:00 10.7 5 Sudoeste 19 Sudoeste 0 -- -- 86
2019-06-10 09:00:00 9.7 5 Sudoeste 14 Sudoeste 0.1 -- -- 92
2019-06-10 08:00:00 9.2 0 Calma 10 Sudoeste 0.2 -- -- 94
2019-06-10 07:00:00 9.7 0 Calma 10 Sudoeste 0 -- -- 91
2019-06-10 06:00:00 9.8 4 Sudoeste 15 Sudoeste 0 -- -- 89
2019-06-10 05:00:00 10.4 5 Sudoeste 27 Oeste 0 -- -- 87
2019-06-10 04:00:00 11.1 9 Sudoeste 28 Sudoeste 0 -- -- 85
2019-06-10 03:00:00 11.7 5 Sudoeste 17 Sudoeste 0 -- -- 89
2019-06-10 02:00:00 12.6 0 Calma 8 Oeste 0 -- -- 91
2019-06-10 01:00:00 13 0 Calma 9 Sudoeste 0 -- -- 86
2019-06-10 00:00:00 13.6 4 Sudoeste 14 Sudoeste 0 -- -- 79
2019-06-09 23:00:00 14.1 3 Sudoeste 14 Sudoeste 0 -- -- 75
2019-06-09 22:00:00 14.5 6 Sudoeste 27 Sudoeste 0 -- -- 69
2019-06-09 21:00:00 15.6 6 Sudoeste 22 Sudoeste 0 -- -- 68
2019-06-09 20:00:00 17.4 9 Sudoeste 26 Sudoeste 0 -- -- 64
2019-06-09 19:00:00 18.5 9 Sudoeste 24 Sudoeste 0 -- -- 60
2019-06-09 18:00:00 21.6 7 Oeste 26 Sudoeste 0 -- -- 54
2019-06-09 17:00:00 21.7 8 Sudoeste 26 Sudoeste 0 -- -- 55
2019-06-09 16:00:00 20.7 6 Sudoeste 19 Sudoeste 0 -- -- 57
2019-06-09 15:00:00 21.3 5 Sudoeste 17 Sudoeste 0 -- -- 52
2019-06-09 14:00:00 22.4 2 Sudoeste 10 Oeste 0 -- -- 51
2019-06-09 13:00:00 21.4 2 Sudoeste 6 Sudoeste 0 -- -- 61
2019-06-09 12:00:00 19.3 0 Calma 14 Este 0 -- -- 67
2019-06-09 11:00:00 15.8 0 Calma 9 Sudeste 0 -- -- 85
2019-06-09 10:00:00 14.3 3 Este 17 Sur 0.1 -- -- 85
2019-06-09 09:00:00 13.7 0 Calma 18 Sudeste 0 -- -- 86
2019-06-09 08:00:00 12 0 Calma 18 Este 0 -- -- 88
2019-06-09 07:00:00 11.7 5 Este 18 Nordeste 0.3 -- -- 88
2019-06-09 06:00:00 11.5 6 Este 12 Sudeste 1.5 -- -- 91
2019-06-09 05:00:00 11.5 0 Calma 10 Este 0.8 -- -- 94
2019-06-09 04:00:00 12.4 4 Este 14 Sudeste 0.5 -- -- 88
2019-06-09 03:00:00 14.2 4 Este 14 Este 0 -- -- 69
2019-06-09 02:00:00 13.3 4 Este 14 Este 0 -- -- 77
2019-06-09 01:00:00 12.6 3 Este 10 Sudeste 0 -- -- 83
2019-06-09 00:00:00 13.2 0 Calma 16 Este 0 -- -- 83
2019-06-08 23:00:00 13.1 3 Sudoeste 11 Oeste 0 -- -- 82
2019-06-08 22:00:00 13.5 2 Este 14 Oeste 0 -- -- 78
2019-06-08 21:00:00 15.3 3 Sudoeste 18 Oeste 0 -- -- 70
2019-06-08 20:00:00 18.9 4 Oeste 17 Oeste 0 -- -- 55
2019-06-08 19:00:00 21 6 Oeste 19 Oeste 0 -- -- 48
2019-06-08 18:00:00 23.3 6 Sudoeste 17 Oeste 0 -- -- 41
2019-06-08 17:00:00 22.8 5 Norte 14 Sudoeste 0 -- -- 35
2019-06-08 16:00:00 22.9 3 Oeste 18 Sur 0 -- -- 36
2019-06-08 15:00:00 22 4 Oeste 31 Oeste 0 -- -- 36
2019-06-08 14:00:00 20.8 5 Sudoeste 17 Sudoeste 0 -- -- 39
2019-06-08 13:00:00 19.2 4 Oeste 16 Sur 0 -- -- 39
2019-06-08 12:00:00 17.8 4 Oeste 16 Sur 0 -- -- 53
2019-06-08 11:00:00 15.5 4 Sudoeste 10 Sudoeste 0 -- -- 55
2019-06-08 10:00:00 12.7 4 Oeste 9 Oeste 0 -- -- 65
2019-06-08 09:00:00 8.9 2 Sudoeste 10 Nordeste 0 -- -- 77
2019-06-08 08:00:00 7.5 5 Este 12 Este 0 -- -- 76
2019-06-08 07:00:00 4.8 4 Este 11 Nordeste 0 -- -- 87
2019-06-08 06:00:00 5.9 4 Este 10 Este 0 -- -- 85
2019-06-08 05:00:00 7.5 0 Calma 5 Sudoeste 0 -- -- 89
2019-06-08 04:00:00 7.8 0 Calma 3 Sudeste 0 -- -- 88
2019-06-08 03:00:00 8.1 0 Calma 5 Sudoeste 0 -- -- 86
2019-06-08 02:00:00 8.4 0 Calma 8 Oeste 0 -- -- 84
2019-06-08 01:00:00 8.7 0 Calma 14 Noroeste 0 -- -- 82
2019-06-08 00:00:00 9 3 Oeste 14 Oeste 0 -- -- 82
2019-06-07 23:00:00 9.7 4 Sudoeste 14 Oeste 0 -- -- 79
2019-06-07 22:00:00 10.5 4 Sudoeste 16 Sudoeste 0 -- -- 75
2019-06-07 21:00:00 11.2 5 Sudoeste 19 Sudoeste 0 -- -- 69
2019-06-07 20:00:00 12.6 6 Sudoeste 23 Sudoeste 0 -- -- 60
2019-06-07 19:00:00 15.6 9 Sudoeste 26 Sudoeste 0 -- -- 53
2019-06-07 18:00:00 16.2 10 Sudoeste 28 Sudoeste 0 -- -- 50
2019-06-07 17:00:00 18.2 7 Oeste 30 Noroeste 0 -- -- 46
2019-06-07 16:00:00 20.5 6 Sudoeste 17 Sudoeste 0 -- -- 38
2019-06-07 15:00:00 19.3 5 Sudoeste 21 Noroeste 0 -- -- 40
2019-06-07 14:00:00 19.6 5 Sudoeste 26 Noroeste 0 -- -- 41
2019-06-07 13:00:00 18.5 6 Sudoeste 27 Sudoeste 0 -- -- 49
2019-06-07 12:00:00 15.3 7 Sudoeste 31 Oeste 0 -- -- 63
2019-06-07 11:00:00 15 2 Oeste 30 Oeste 0.6 -- -- 75
2019-06-07 10:00:00 16.2 8 Noroeste 42 Sudoeste 0 -- -- 50
2019-06-07 09:00:00 14.6 7 Oeste 30 Oeste 0 -- -- 57
2019-06-07 08:00:00 14.2 9 Oeste 31 Oeste 0 -- -- 50
2019-06-07 07:00:00 13.4 9 Sudoeste 29 Sudoeste 0 -- -- 52
2019-06-07 06:00:00 12.3 0 Calma 14 Noroeste 0 -- -- 57
2019-06-07 05:00:00 14.5 4 Sudoeste 30 Sur 0 -- -- 50
2019-06-07 04:00:00 15.3 6 Oeste 28 Sudoeste 0 -- -- 47
2019-06-07 03:00:00 15 10 Oeste 34 Sudoeste 0 -- -- 48
2019-06-07 02:00:00 13.9 7 Nordeste 38 Nordeste 0 -- -- 49
2019-06-07 01:00:00 14.2 9 Este 30 Nordeste 0 -- -- 49
2019-06-07 00:00:00 13.3 8 Este 23 Nordeste 0 -- -- 51
2019-06-06 23:00:00 13.8 8 Este 30 Nordeste 0 -- -- 52
2019-06-06 22:00:00 14.4 6 Este 26 Nordeste 0 -- -- 53
2019-06-06 21:00:00 15.3 2 Oeste 53 Oeste 0 -- -- 50
2019-06-06 20:00:00 15.2 3 Sudeste 13 Nordeste 0 -- -- 54
2019-06-06 19:00:00 15.9 4 Noroeste 19 Sudoeste 0 -- -- 46
2019-06-06 18:00:00 16.8 4 Norte 18 Nordeste 0 -- -- 40
2019-06-06 17:00:00 17.4 6 Norte 29 Nordeste 0 -- -- 38
2019-06-06 16:00:00 16.7 4 Norte 21 Noroeste 0 -- -- 39
2019-06-06 15:00:00 16.6 5 Norte 18 Nordeste 0 -- -- 42
2019-06-06 14:00:00 15.4 4 Nordeste 17 Noroeste 0 -- -- 44
2019-06-06 13:00:00 15.1 0 Calma 13 Sudoeste 0 -- -- 48
2019-06-06 12:00:00 15.2 2 Sudoeste 11 Sur 0 -- -- 46
2019-06-06 11:00:00 14.1 0 Calma 8 Nordeste 0 -- -- 55
2019-06-06 10:00:00 10.6 0 Calma 9 Sudoeste 0 -- -- 75
2019-06-06 09:00:00 10.9 2 Sudoeste 8 Sur 0 -- -- 78
2019-06-06 08:00:00 8.4 0 Calma 9 Este 0 -- -- 85
2019-06-06 07:00:00 5.3 5 Nordeste 9 Este 0 -- -- 93
2019-06-06 06:00:00 4.8 4 Este 11 Nordeste 0 -- -- 94
2019-06-06 05:00:00 4.6 2 Nordeste 6 Nordeste 0 -- -- 96
2019-06-06 04:00:00 6.5 2 Este 6 Oeste 0 -- -- 95
2019-06-06 03:00:00 6.7 0 Calma 6 Sudoeste 0 -- -- 96
2019-06-06 02:00:00 6.9 0 Calma 5 Sudoeste 0 -- -- 96
2019-06-06 01:00:00 7.1 0 Calma 7 Oeste 0 -- -- 95
2019-06-06 00:00:00 7.2 0 Calma 7 Noroeste 0 -- -- 95
2019-06-05 23:00:00 7 0 Calma 9 Noroeste 0 -- -- 95
2019-06-05 22:00:00 7.1 0 Calma 7 Sudoeste 0 -- -- 94
2019-06-05 21:00:00 7.8 0 Calma 10 Sudoeste 0 -- -- 91
2019-06-05 20:00:00 8.1 2 Sur 8 Sudoeste 0 -- -- 88
2019-06-05 19:00:00 8.8 3 Sudoeste 13 Oeste 0 -- -- 90
2019-06-05 18:00:00 7.9 3 Oeste 13 Oeste 0.5 -- -- 93
2019-06-05 17:00:00 7.4 4 Sudoeste 16 Sudoeste 2.3 -- -- 93
2019-06-05 16:00:00 8.6 3 Sudoeste 14 Sudoeste 0.9 -- -- 93
2019-06-05 15:00:00 7.7 3 Sudoeste 25 Sudoeste 0.8 -- -- 93
2019-06-05 14:00:00 7.7 9 Sudoeste 26 Sudoeste 3.5 -- -- 93
2019-06-05 13:00:00 9.9 7 Sudoeste 30 Sudoeste 3.6 -- -- 91
2019-06-05 12:00:00 13.2 12 Sudoeste 27 Sudoeste 0.4 -- -- 73
2019-06-05 11:00:00 15.6 6 Oeste 21 Sudoeste 0 -- -- 68
2019-06-05 10:00:00 14.2 5 Sudoeste 17 Sudoeste 0 -- -- 75
2019-06-05 09:00:00 11.4 4 Sudoeste 17 Oeste 0 -- -- 89
2019-06-05 08:00:00 10.5 3 Sudoeste 11 Sudoeste 0 -- -- 94
2019-06-05 07:00:00 10.8 3 Sudoeste 9 Sudoeste 0 -- -- 95
2019-06-05 06:00:00 11.3 0 Calma 7 Sudoeste 0 -- -- 93
2019-06-05 05:00:00 11.7 0 Calma 5 Oeste 0 -- -- 91
2019-06-05 04:00:00 12 0 Calma 10 Sudoeste 0 -- -- 90
2019-06-05 03:00:00 12.5 3 Oeste 15 Oeste 0 -- -- 90
2019-06-05 02:00:00 13.2 2 Oeste 12 Sudoeste 0 -- -- 90
2019-06-05 01:00:00 14.1 3 Oeste 14 Oeste 0 -- -- 90
2019-06-05 00:00:00 14.9 2 Oeste 15 Oeste 0 -- -- 89
2019-06-04 23:00:00 16 3 Sudoeste 14 Norte 0 -- -- 88
2019-06-04 22:00:00 17.7 0 Calma 11 Noroeste 0 -- -- 83
2019-06-04 21:00:00 20 3 Sudoeste 17 Oeste 0 -- -- 69
2019-06-04 20:00:00 23.4 4 Noroeste 16 Sudeste 0 -- -- 39
2019-06-04 19:00:00 25.2 2 Oeste 17 Oeste 0 -- -- 37
2019-06-04 18:00:00 27 5 Sudoeste 31 Noroeste 0 -- -- 36
2019-06-04 17:00:00 27 9 Oeste 27 Oeste 0 -- -- 35
2019-06-04 16:00:00 27.8 3 Oeste 24 Oeste 0 -- -- 37
2019-06-04 15:00:00 25.5 0 Calma 20 Oeste 0 -- -- 39
2019-06-04 14:00:00 27.7 6 Oeste 21 Oeste 0 -- -- 36
2019-06-04 13:00:00 28 4 Sudoeste 18 Oeste 0 -- -- 37
2019-06-04 12:00:00 27.9 4 Sudoeste 19 Sudoeste 0 -- -- 36
2019-06-04 11:00:00 26.8 5 Sudoeste 18 Sudoeste 0 -- -- 40
2019-06-04 10:00:00 23.4 0 Calma 9 Noroeste 0 -- -- 55
2019-06-04 09:00:00 19 0 Calma 15 Sudeste 0 -- -- 62
2019-06-04 08:00:00 14.6 3 Este 10 Este 0 -- -- 69
2019-06-04 07:00:00 14.5 5 Nordeste 13 Nordeste 0 -- -- 66
2019-06-04 06:00:00 14.8 4 Este 11 Sur 0 -- -- 66
2019-06-04 05:00:00 14.1 3 Este 10 Sudeste 0 -- -- 68
2019-06-04 04:00:00 15.4 3 Este 14 Sudeste 0 -- -- 62
2019-06-04 03:00:00 15.1 0 Calma 14 Sudeste 0 -- -- 62
2019-06-04 02:00:00 17.8 5 Sudeste 14 Este 0 -- -- 56
2019-06-04 01:00:00 15.7 3 Este 12 Nordeste 0 -- -- 62
2019-06-04 00:00:00 16.7 7 Este 16 Este 0 -- -- 58
2019-06-03 23:00:00 17 8 Este 17 Este 0 -- -- 57
2019-06-03 22:00:00 17.6 6 Nordeste 15 Nordeste 0 -- -- 58
2019-06-03 21:00:00 21 2 Sur 15 Sur 0 -- -- 45
2019-06-03 20:00:00 24.2 3 Sudoeste 13 Sudoeste 0 -- -- 43
2019-06-03 19:00:00 26.6 4 Sudoeste 12 Oeste 0 -- -- 41
2019-06-03 18:00:00 26.7 5 Sudoeste 23 Noroeste 0 -- -- 41
2019-06-03 17:00:00 28.7 6 Sudoeste 22 Sudoeste 0 -- -- 40
2019-06-03 16:00:00 26.8 4 Oeste 18 Oeste 0 -- -- 40
2019-06-03 15:00:00 26.9 5 Oeste 16 Sudoeste 0 -- -- 42
2019-06-03 14:00:00 24.6 3 Norte 8 Norte 0 -- -- 46
2019-06-03 13:00:00 22.4 4 Nordeste 13 Sudeste 0 -- -- 64
2019-06-03 12:00:00 20.8 0 Calma 4 Noroeste 0 -- -- 67
2019-06-03 11:00:00 21 0 Calma 13 Oeste 0 -- -- 61
2019-06-03 10:00:00 22 5 Oeste 15 Sudoeste 0 -- -- 59
2019-06-03 09:00:00 20.2 3 Este 14 Este 0 -- -- 60
2019-06-03 08:00:00 17.4 3 Este 17 Este 0 -- -- 63
2019-06-03 07:00:00 17 7 Este 14 Este 0 -- -- 61
2019-06-03 06:00:00 15 5 Nordeste 17 Este 0 -- -- 66
2019-06-03 05:00:00 14.9 2 Este 19 Este 0 -- -- 66
2019-06-03 04:00:00 16.8 7 Este 18 Este 0 -- -- 59
2019-06-03 03:00:00 13.6 3 Nordeste 10 Sudeste 0 -- -- 72
2019-06-03 02:00:00 15.6 4 Este 14 Este 0 -- -- 64
2019-06-03 01:00:00 16.1 5 Este 14 Este 0 -- -- 63
2019-06-03 00:00:00 17.7 4 Este 12 Este 0 -- -- 61
2019-06-02 23:00:00 18.8 0 Calma 13 Este 0 -- -- 55
2019-06-02 22:00:00 20.5 6 Nordeste 13 Nordeste 0 -- -- 48
2019-06-02 21:00:00 21.5 7 Este 16 Este 0 -- -- 47
2019-06-02 20:00:00 23.5 2 Sudoeste 12 Oeste 0 -- -- 41
2019-06-02 19:00:00 27.4 5 Sudoeste 18 Sudoeste 0 -- -- 35
2019-06-02 18:00:00 27.1 6 Sudoeste 22 Sudoeste 0 -- -- 34
2019-06-02 17:00:00 30 5 Sudoeste 18 Sudoeste 0 -- -- 32
2019-06-02 16:00:00 29.7 5 Sudoeste 16 Sudoeste 0 -- -- 32
2019-06-02 15:00:00 29.2 6 Sudoeste 16 Sudoeste 0 -- -- 33
2019-06-02 14:00:00 28.8 5 Sudoeste 17 Sudoeste 0 -- -- 35
2019-06-02 13:00:00 27.8 6 Sudoeste 17 Sudoeste 0 -- -- 33
2019-06-02 12:00:00 27.4 4 Sudoeste 16 Sudoeste 0 -- -- 34
2019-06-02 11:00:00 25.1 0 Calma 5 Sudeste 0 -- -- 43
2019-06-02 10:00:00 21.2 2 Oeste 5 Noroeste 0 -- -- 63
2019-06-02 09:00:00 17.8 0 Calma 12 Sudeste 0 -- -- 67
2019-06-02 08:00:00 15.7 5 Este 15 Este 0 -- -- 69
2019-06-02 07:00:00 12.8 6 Este 17 Nordeste 0 -- -- 75
2019-06-02 06:00:00 12.3 4 Este 12 Nordeste 0 -- -- 79
2019-06-02 05:00:00 14.4 5 Este 17 Nordeste 0 -- -- 70
2019-06-02 04:00:00 15.1 5 Este 15 Este 0 -- -- 68
2019-06-02 03:00:00 12.4 3 Este 9 Este 0 -- -- 83
2019-06-02 02:00:00 13.5 2 Nordeste 13 Nordeste 0 -- -- 80
2019-06-02 01:00:00 14.5 3 Este 9 Nordeste 0 -- -- 79
2019-06-02 00:00:00 14.5 0 Calma 6 Sudeste 0 -- -- 80
2019-06-01 23:00:00 16.4 3 Nordeste 5 Nordeste 0 -- -- 75
2019-06-01 22:00:00 18.7 3 Nordeste 11 Sudoeste 0 -- -- 63
2019-06-01 21:00:00 21.8 4 Sudoeste 21 Oeste 0 -- -- 51
2019-06-01 20:00:00 24.1 5 Sudoeste 20 Sudoeste 0 -- -- 45
2019-06-01 19:00:00 26.7 6 Sudoeste 19 Oeste 0 -- -- 41
2019-06-01 18:00:00 28.1 6 Sudoeste 22 Oeste 0 -- -- 38
2019-06-01 17:00:00 28.5 7 Sudoeste 26 Sudoeste 0 -- -- 36
2019-06-01 16:00:00 28.9 6 Sudoeste 22 Sudoeste 0 -- -- 34
2019-06-01 15:00:00 28.6 5 Sudoeste 15 Sudoeste 0 -- -- 32
2019-06-01 14:00:00 27.5 5 Sudoeste 17 Oeste 0 -- -- 33
2019-06-01 13:00:00 27.1 5 Sudoeste 17 Oeste 0 -- -- 34
2019-06-01 12:00:00 26 3 Oeste 9 Oeste 0 -- -- 36
2019-06-01 11:00:00 24.2 2 Sur 5 Sudoeste 0 -- -- 40
2019-06-01 10:00:00 19 0 Calma 4 Noroeste 0 -- -- 60
2019-06-01 09:00:00 14.7 0 Calma 13 Este 0 -- -- 65
2019-06-01 08:00:00 12.6 3 Este 11 Este 0 -- -- 71
2019-06-01 07:00:00 8.9 3 Nordeste 10 Este 0 -- -- 79
2019-06-01 06:00:00 9.2 3 Este 11 Nordeste 0 -- -- 78
2019-06-01 05:00:00 9.8 4 Este 12 Nordeste 0 -- -- 76
2019-06-01 04:00:00 9.3 0 Calma 10 Este 0 -- -- 81
2019-06-01 03:00:00 9.9 2 Nordeste 7 Este 0 -- -- 85
2019-06-01 02:00:00 11.4 4 Nordeste 9 Nordeste 0 -- -- 84
2019-06-01 01:00:00 11.5 2 Nordeste 12 Nordeste 0 -- -- 85
2019-06-01 00:00:00 13.7 6 Este 13 Nordeste 0 -- -- 78
2019-05-31 23:00:00 13.5 0 Calma 8 Este 0 -- -- 81
2019-05-31 22:00:00 15.4 3 Nordeste 8 Sudoeste 0 -- -- 76
2019-05-31 21:00:00 19.3 3 Sudoeste 20 Sudoeste 0 -- -- 57
2019-05-31 20:00:00 22.1 6 Sudoeste 27 Sudoeste 0 -- -- 48
2019-05-31 19:00:00 24.2 7 Sudoeste 30 Sudoeste 0 -- -- 45
2019-05-31 18:00:00 25.3 8 Sudoeste 24 Sudoeste 0 -- -- 39
2019-05-31 17:00:00 25.9 7 Sudoeste 22 Sudoeste 0 -- -- 36
2019-05-31 16:00:00 26.2 7 Sudoeste 21 Sudoeste 0 -- -- 34
2019-05-31 15:00:00 26.1 6 Sudoeste 15 Oeste 0 -- -- 33
2019-05-31 14:00:00 25.2 6 Sudoeste 19 Sudoeste 0 -- -- 33
2019-05-31 13:00:00 24.1 6 Sudoeste 15 Sudoeste 0 -- -- 33
2019-05-31 12:00:00 22.7 5 Sudoeste 14 Sudoeste 0 -- -- 33
2019-05-31 11:00:00 20.7 3 Sudoeste 9 Oeste 0 -- -- 42
2019-05-31 10:00:00 16.5 0 Calma 4 Sudoeste 0 -- -- 56
2019-05-31 09:00:00 11.7 0 Calma 5 Norte 0 -- -- 70
2019-05-31 08:00:00 10 3 Nordeste 10 Nordeste 0 -- -- 73
2019-05-31 07:00:00 6.8 4 Este 10 Nordeste 0 -- -- 83
2019-05-31 06:00:00 5.9 2 Nordeste 7 Este 0 -- -- 87
2019-05-31 05:00:00 6.8 3 Este 12 Nordeste 0 -- -- 83
2019-05-31 04:00:00 7.5 3 Este 12 Este 0 -- -- 84
2019-05-31 03:00:00 8.8 6 Este 13 Este 0 -- -- 79
2019-05-31 02:00:00 8.8 4 Nordeste 10 Nordeste 0 -- -- 85
2019-05-31 01:00:00 9.6 3 Este 9 Este 0 -- -- 85
2019-05-31 00:00:00 10.5 3 Este 10 Nordeste 0 -- -- 81
2019-05-30 23:00:00 11.9 3 Este 7 Nordeste 0 -- -- 79
2019-05-30 22:00:00 14.5 2 Sudoeste 8 Sudoeste 0 -- -- 67
2019-05-30 21:00:00 16.1 4 Sudoeste 22 Sudoeste 0 -- -- 56
2019-05-30 20:00:00 19.2 6 Oeste 20 Sudoeste 0 -- -- 43
2019-05-30 19:00:00 21.9 6 Sudoeste 20 Sudoeste 0 -- -- 38
2019-05-30 18:00:00 23.1 5 Sudoeste 18 Sudoeste 0 -- -- 36
2019-05-30 17:00:00 22.6 8 Sudoeste 22 Oeste 0 -- -- 37
2019-05-30 16:00:00 22.3 7 Sudoeste 22 Sudoeste 0 -- -- 38
2019-05-30 15:00:00 22.2 6 Sudoeste 22 Oeste 0 -- -- 37
2019-05-30 14:00:00 21.3 8 Sudoeste 24 Sudoeste 0 -- -- 38
2019-05-30 13:00:00 20 8 Sudoeste 21 Sudoeste 0 -- -- 41
2019-05-30 12:00:00 18.7 6 Sudoeste 19 Sudoeste 0 -- -- 40
2019-05-30 11:00:00 17 3 Sudoeste 11 Oeste 0 -- -- 50
2019-05-30 10:00:00 13.7 2 Sudoeste 4 Sudoeste 0 -- -- 60
2019-05-30 09:00:00 9.4 2 Oeste 6 Este 0 -- -- 78
2019-05-30 08:00:00 7 0 Calma 8 Nordeste 0 -- -- 87
2019-05-30 07:00:00 4 2 Nordeste 10 Nordeste 0 -- -- 92
2019-05-30 06:00:00 4.5 2 Este 11 Nordeste 0 -- -- 90
2019-05-30 05:00:00 5 4 Este 11 Nordeste 0 -- -- 88
2019-05-30 04:00:00 5.4 4 Este 10 Este 0 -- -- 88
2019-05-30 03:00:00 6.3 3 Este 6 Este 0 -- -- 87
2019-05-30 02:00:00 7.1 0 Calma 6 Nordeste 0 -- -- 88
2019-05-30 01:00:00 7.2 3 Este 11 Nordeste 0 -- -- 84
2019-05-30 00:00:00 7.8 5 Nordeste 14 Oeste 0 -- -- 81
2019-05-29 23:00:00 8.8 5 Sudoeste 20 Sudoeste 0 -- -- 72
2019-05-29 22:00:00 9.6 4 Sudoeste 14 Sudoeste 0 -- -- 63
2019-05-29 21:00:00 10.3 5 Sudoeste 18 Sudoeste 0 -- -- 58
2019-05-29 20:00:00 11.1 6 Sudoeste 19 Sudoeste 0 -- -- 52
2019-05-29 19:00:00 12.1 3 Oeste 17 Sudoeste 0 -- -- 47
2019-05-29 18:00:00 13.1 5 Sudoeste 23 Oeste 0 -- -- 46
2019-05-29 17:00:00 14.9 6 Sudoeste 27 Sudoeste 0 -- -- 44
2019-05-29 16:00:00 13.7 6 Sudoeste 24 Sudoeste 0 -- -- 47
2019-05-29 15:00:00 13.2 6 Sudoeste 19 Sudoeste 0 -- -- 47
2019-05-29 14:00:00 12.7 6 Sudoeste 23 Sudoeste 0 -- -- 47
2019-05-29 13:00:00 13.6 6 Sudoeste 20 Sudoeste 0 -- -- 50
2019-05-29 12:00:00 12.9 6 Sudoeste 18 Sudoeste 0 -- -- 54
2019-05-29 11:00:00 10 5 Sudoeste 13 Sudoeste 0 -- -- 68
2019-05-29 10:00:00 7.5 4 Sudoeste 14 Sudoeste 0 -- -- 81
2019-05-29 09:00:00 5.8 4 Sudoeste 16 Sudoeste 0.1 -- -- 88
2019-05-29 08:00:00 5.3 0 Calma 13 Sudoeste 0 -- -- 90
2019-05-29 07:00:00 4.8 4 Sudoeste 17 Sudoeste 0.2 -- -- 91
2019-05-29 06:00:00 4.9 4 Sur 18 Sudoeste 0.1 -- -- 90
2019-05-29 05:00:00 4.9 4 Sudoeste 16 Sudoeste 0.1 -- -- 90
2019-05-29 04:00:00 5.1 3 Sudoeste 11 Noroeste 0.2 -- -- 88
2019-05-29 03:00:00 5.1 2 Oeste 11 Oeste 0.4 -- -- 90
2019-05-29 02:00:00 5.5 3 Oeste 11 Sudoeste 0.6 -- -- 88
2019-05-29 01:00:00 5.8 5 Sudoeste 21 Sudoeste 0.5 -- -- 86
2019-05-29 00:00:00 7.3 3 Sudoeste 18 Sudoeste 0 -- -- 69
2019-05-28 23:00:00 7.6 4 Sudoeste 27 Sudoeste 0 -- -- 67
2019-05-28 22:00:00 8.5 5 Sudoeste 18 Oeste 0 -- -- 62
2019-05-28 21:00:00 9.2 5 Sudoeste 17 Sudoeste 0 -- -- 62
2019-05-28 20:00:00 9.7 6 Sudoeste 23 Sudoeste 0 -- -- 61
2019-05-28 19:00:00 11.9 6 Sudoeste 21 Sudoeste 0 -- -- 53
2019-05-28 18:00:00 15.5 6 Sudoeste 20 Sudoeste 0 -- -- 46
2019-05-28 17:00:00 14.6 7 Sudoeste 23 Sudoeste 0 -- -- 48
2019-05-28 16:00:00 16.3 9 Sudoeste 26 Sudoeste 0 -- -- 46
2019-05-28 15:00:00 16 7 Sudoeste 25 Oeste 0 -- -- 45
2019-05-28 14:00:00 15.2 6 Sudoeste 21 Sudoeste 0 -- -- 47
2019-05-28 13:00:00 13.6 7 Sudoeste 22 Sudoeste 0 -- -- 47
2019-05-28 12:00:00 12.4 8 Sudoeste 18 Sudoeste 0 -- -- 57
2019-05-28 11:00:00 11.5 6 Sudoeste 18 Sudoeste 0 -- -- 61
2019-05-28 10:00:00 9 4 Sudoeste 12 Oeste 0 -- -- 77
2019-05-28 09:00:00 7.5 3 Oeste 11 Noroeste 0.1 -- -- 84
2019-05-28 08:00:00 6.5 3 Oeste 10 Oeste 0 -- -- 88
2019-05-28 07:00:00 6.4 0 Calma 9 Oeste 0 -- -- 88
2019-05-28 06:00:00 6.4 2 Noroeste 9 Noroeste 0 -- -- 89
2019-05-28 05:00:00 7.5 0 Calma 9 Sudoeste 0 -- -- 91
2019-05-28 04:00:00 8.1 4 Sudoeste 13 Sudoeste 0 -- -- 91
2019-05-28 03:00:00 8.2 3 Oeste 13 Sudoeste 0.1 -- -- 92
2019-05-28 02:00:00 8.9 5 Sudoeste 15 Sudoeste 0 -- -- 92
2019-05-28 01:00:00 9.8 0 Calma 8 Oeste 0 -- -- 95
2019-05-28 00:00:00 9.9 3 Sudoeste 9 Sudoeste 0.1 -- -- 94
2019-05-27 23:00:00 10.2 0 Calma 10 Sudoeste 0.3 -- -- 94
2019-05-27 22:00:00 10.4 5 Sudoeste 13 Sudoeste 0 -- -- 90
2019-05-27 21:00:00 10.8 4 Sudoeste 14 Sudoeste 0 -- -- 87
2019-05-27 20:00:00 11.8 5 Sudoeste 18 Sudoeste 0 -- -- 82
2019-05-27 19:00:00 12.6 6 Sudoeste 23 Oeste 0 -- -- 77
2019-05-27 18:00:00 13.8 7 Sudoeste 21 Oeste 0 -- -- 69
2019-05-27 17:00:00 14.1 6 Oeste 23 Sudoeste 0 -- -- 67
2019-05-27 16:00:00 15.6 7 Sudoeste 24 Sudoeste 0 -- -- 63
2019-05-27 15:00:00 15.3 9 Sudoeste 21 Sudoeste 0 -- -- 59
2019-05-27 14:00:00 17.2 8 Sudoeste 23 Sudoeste 0 -- -- 53
2019-05-27 13:00:00 17.4 7 Sudoeste 23 Sudoeste 0 -- -- 51
2019-05-27 12:00:00 15.8 6 Sudoeste 16 Sudoeste 0 -- -- 60
2019-05-27 11:00:00 13.6 2 Oeste 8 Noroeste 0 -- -- 64
2019-05-27 10:00:00 11 0 Calma 5 Nordeste 0 -- -- 73
2019-05-27 09:00:00 8.9 0 Calma 4 Oeste 0 -- -- 85
2019-05-27 08:00:00 8.2 2 Oeste 6 Oeste 0 -- -- 90
2019-05-27 07:00:00 7.6 0 Calma 4 Nordeste 0 -- -- 91
2019-05-27 06:00:00 7.9 0 Calma 4 Nordeste 0 -- -- 91
2019-05-27 05:00:00 8.1 0 Calma 7 Este 0 -- -- 91
2019-05-27 04:00:00 7.8 3 Nordeste 7 Nordeste 0 -- -- 93
2019-05-27 03:00:00 7.6 0 Calma 6 Este 0 -- -- 91
2019-05-27 02:00:00 8.3 2 Nordeste 5 Nordeste 0 -- -- 91
2019-05-27 01:00:00 8.3 0 Calma 9 Nordeste 0 -- -- 88
2019-05-27 00:00:00 7.8 2 Nordeste 7 Nordeste 0 -- -- 92
2019-05-26 23:00:00 7.4 3 Nordeste 8 Nordeste 0 -- -- 92
2019-05-26 22:00:00 8.1 0 Calma 9 Este 0 -- -- 89
2019-05-26 21:00:00 9.9 2 Sudoeste 13 Oeste 0 -- -- 81
2019-05-26 20:00:00 11.1 4 Sudoeste 18 Sudoeste 0 -- -- 73
2019-05-26 19:00:00 11.9 6 Sudoeste 19 Oeste 0 -- -- 70
2019-05-26 18:00:00 12.4 7 Sudoeste 21 Sudoeste 0 -- -- 69
2019-05-26 17:00:00 13 7 Sudoeste 19 Sudoeste 0 -- -- 69
2019-05-26 16:00:00 12.2 6 Sudoeste 21 Sudoeste 0 -- -- 72
2019-05-26 15:00:00 11.8 5 Sudoeste 17 Sudoeste 0 -- -- 73
2019-05-26 14:00:00 12.4 3 Sur 11 Sudeste 0 -- -- 68
2019-05-26 13:00:00 10.4 2 Sudoeste 14 Sudoeste 0 -- -- 75
2019-05-26 12:00:00 10.3 0 Calma 4 Oeste 0 -- -- 79
2019-05-26 11:00:00 9.5 0 Calma 6 Oeste 0 -- -- 82
2019-05-26 10:00:00 9.2 0 Calma 8 Oeste 0 -- -- 85
2019-05-26 09:00:00 8.1 0 Calma 9 Oeste 0 -- -- 91
2019-05-26 08:00:00 7.5 0 Calma 9 Sudoeste 0 -- -- 94
2019-05-26 07:00:00 7 2 Oeste 9 Oeste 0 -- -- 94
2019-05-26 06:00:00 7 2 Oeste 13 Oeste 0 -- -- 94
2019-05-26 05:00:00 7.2 2 Oeste 12 Sudoeste 0 -- -- 95
2019-05-26 04:00:00 7.6 4 Oeste 13 Oeste 0 -- -- 95
2019-05-26 03:00:00 8.1 0 Calma 7 Oeste 0.3 -- -- 96
2019-05-26 02:00:00 8.2 0 Calma -- -- -- -- -- 95
2019-05-26 01:00:00 8.4 0 Calma 6 Sudoeste 0.5 -- -- 94
2019-05-26 00:00:00 8.5 2 Sur 8 Sudeste 0.6 -- -- 94
2019-05-25 23:00:00 8.5 2 Sudoeste 10 Sudoeste 0 -- -- 94
2019-05-25 22:00:00 8.8 0 Calma 10 Oeste 0.3 -- -- 94
2019-05-25 21:00:00 9.1 0 Calma 15 Oeste 0 -- -- 88
2019-05-25 20:00:00 9.5 4 Oeste 13 Oeste 0 -- -- 86
2019-05-25 19:00:00 10.4 4 Oeste 18 Oeste 0 -- -- 83
2019-05-25 18:00:00 10.3 3 Oeste 15 Sudoeste 0 -- -- 82
2019-05-25 17:00:00 10.3 5 Sudoeste 13 Sudoeste 0.1 -- -- 83
2019-05-25 16:00:00 10.2 4 Sudoeste 24 Sudoeste 0 -- -- 82
2019-05-25 15:00:00 10.5 6 Sudoeste 20 Sudoeste 0 -- -- 77
2019-05-25 14:00:00 11.9 6 Sudoeste 19 Sudoeste 0 -- -- 80
2019-05-25 13:00:00 11.7 6 Sudoeste 17 Oeste 0.2 -- -- 85
2019-05-25 12:00:00 10.7 5 Sudoeste 19 Sudoeste 0.6 -- -- 89
2019-05-25 11:00:00 9.9 4 Sudoeste 14 Sudoeste 0.2 -- -- 89
2019-05-25 10:00:00 9.3 4 Sudoeste 17 Oeste 0.2 -- -- 92
2019-05-25 09:00:00 8.5 4 Sudoeste 15 Sudoeste 0.5 -- -- 94
2019-05-25 08:00:00 8.1 3 Sudoeste 13 Oeste 0.5 -- -- 95
2019-05-25 07:00:00 8 0 Calma 8 Sudoeste 0.9 -- -- 95
2019-05-25 06:00:00 8.1 3 Sur 12 Oeste 1.2 -- -- 96
2019-05-25 05:00:00 8.2 5 Sudoeste 14 Oeste 1.4 -- -- 96
2019-05-25 04:00:00 8.3 3 Sudoeste 12 Oeste 0.6 -- -- 96
2019-05-25 03:00:00 8.4 2 Sur 10 Oeste 1.2 -- -- 96
2019-05-25 02:00:00 8.4 4 Sudoeste 11 Sudoeste 1.7 -- -- 96
2019-05-25 01:00:00 8.6 4 Sudoeste 12 Oeste 1 -- -- 95
2019-05-25 00:00:00 8.8 0 Calma 12 Noroeste 0.8 -- -- 94
2019-05-24 23:00:00 8.8 0 Calma 8 Sudeste 0.6 -- -- 94
2019-05-24 22:00:00 8.7 2 Sudeste 9 Sudoeste 0.5 -- -- 95
2019-05-24 21:00:00 9 3 Sudoeste 10 Oeste 0.5 -- -- 94
2019-05-24 20:00:00 9.5 4 Sudoeste 17 Oeste 0.4 -- -- 93
2019-05-24 19:00:00 9.6 5 Oeste 16 Oeste 0.4 -- -- 90
2019-05-24 18:00:00 10.5 4 Sudoeste 15 Oeste 0 -- -- 86
2019-05-24 17:00:00 10.4 4 Sudoeste 14 Sudoeste 0 -- -- 82
2019-05-24 16:00:00 9.6 2 Sur 7 Oeste 0 -- -- 79
2019-05-24 15:00:00 10.2 2 Noroeste 6 Oeste 0.1 -- -- 75
2019-05-24 14:00:00 9.7 0 Calma 6 Nordeste 0.1 -- -- 75
2019-05-24 13:00:00 8.5 5 Nordeste 9 Nordeste 0.6 -- -- 77
2019-05-24 12:00:00 7.2 5 Nordeste 10 Este 1.4 -- -- 85
2019-05-24 11:00:00 6.7 5 Nordeste 9 Nordeste 1.5 -- -- 87
2019-05-24 10:00:00 6.9 0 Calma 4 Sudoeste 3 -- -- 94
2019-05-24 09:00:00 6.8 2 Sudoeste 9 Oeste 5.2 -- -- 94
2019-05-24 08:00:00 8.7 2 Oeste 10 Sudoeste 5.3 -- -- 96
2019-05-24 07:00:00 8.9 5 Sudoeste 21 Sudoeste 6.5 -- -- 95
2019-05-24 06:00:00 9.5 3 Nordeste 4 Nordeste 2.7 -- -- 95
2019-05-24 05:00:00 9.3 2 Este 7 Nordeste 0 -- -- 95
2019-05-24 04:00:00 8.6 3 Sur 8 Nordeste 0 -- -- 95
2019-05-24 03:00:00 9 0 Calma 8 Este 0 -- -- 95
2019-05-24 02:00:00 9.9 0 Calma 5 Nordeste 0 -- -- 94
2019-05-24 01:00:00 10.9 0 Calma 11 Este 0.1 -- -- 94
2019-05-24 00:00:00 11.2 0 Calma 8 Sudoeste 0.1 -- -- 95
2019-05-23 23:00:00 11 0 Calma 10 Nordeste 1.1 -- -- 94
2019-05-23 22:00:00 12.1 3 Nordeste 6 Sudeste 2 -- -- 94
2019-05-23 21:00:00 12.9 4 Este 14 Sudeste 0 -- -- 82
2019-05-23 20:00:00 13.1 3 Este 26 Sudoeste 1.5 -- -- 89
2019-05-23 19:00:00 17 7 Sudoeste 28 Sudoeste 0 -- -- 53
2019-05-23 18:00:00 19.1 7 Sudoeste 19 Oeste 0 -- -- 47
2019-05-23 17:00:00 20.3 7 Sudoeste 20 Sudoeste 0 -- -- 42
2019-05-23 16:00:00 22 6 Sudoeste 19 Sudoeste 0 -- -- 38
2019-05-23 15:00:00 23 6 Sudoeste 25 Sudoeste 0 -- -- 36
2019-05-23 14:00:00 23.1 7 Sudoeste 21 Sudoeste 0 -- -- 35
2019-05-23 13:00:00 22.5 7 Sudoeste 24 Sudoeste 0 -- -- 37
2019-05-23 12:00:00 21.7 6 Sudoeste 22 Sudoeste 0 -- -- 38
2019-05-23 11:00:00 19.9 2 Sudoeste 7 Oeste 0 -- -- 39
2019-05-23 10:00:00 15.6 2 Sudoeste 5 Noroeste 0 -- -- 54
2019-05-23 09:00:00 10.9 0 Calma 6 Nordeste 0 -- -- 66
2019-05-23 08:00:00 9.2 3 Nordeste 10 Nordeste 0 -- -- 74
2019-05-23 07:00:00 6.1 0 Calma 14 Este 0 -- -- 85
2019-05-23 06:00:00 6.6 2 Este 13 Nordeste 0 -- -- 84
2019-05-23 05:00:00 6.1 0 Calma 6 Nordeste 0 -- -- 90
2019-05-23 04:00:00 7 3 Nordeste 11 Nordeste 0 -- -- 89
2019-05-23 03:00:00 7.7 2 Este 7 Nordeste 0 -- -- 90
2019-05-23 02:00:00 8.2 2 Este 6 Nordeste 0 -- -- 89
2019-05-23 01:00:00 8.4 3 Nordeste 7 Este 0 -- -- 88
2019-05-23 00:00:00 9.7 2 Este 5 Nordeste 0 -- -- 84
2019-05-22 23:00:00 11.2 0 Calma 8 Sudoeste 0 -- -- 78
2019-05-22 22:00:00 13.4 0 Calma 15 Sudeste 0 -- -- 66
2019-05-22 21:00:00 14.8 5 Sudoeste 17 Sudoeste 0 -- -- 60
2019-05-22 20:00:00 16.9 7 Sudoeste 25 Sudoeste 0 -- -- 50
2019-05-22 19:00:00 19.5 7 Sudoeste 26 Oeste 0 -- -- 46
2019-05-22 18:00:00 20.3 9 Sudoeste 26 Sudoeste 0 -- -- 43
2019-05-22 17:00:00 21.2 7 Sudoeste 21 Oeste 0 -- -- 42
2019-05-22 16:00:00 21.6 8 Sudoeste 19 Sudoeste 0 -- -- 38
2019-05-22 15:00:00 21.3 6 Sudoeste 19 Sudoeste 0 -- -- 38
2019-05-22 14:00:00 21 7 Sudoeste 19 Oeste 0 -- -- 40
2019-05-22 13:00:00 19.3 5 Sudoeste 19 Sudoeste 0 -- -- 39
2019-05-22 12:00:00 18 5 Sudoeste 15 Sudoeste 0 -- -- 49
2019-05-22 11:00:00 15.5 3 Oeste 10 Oeste 0 -- -- 55
2019-05-22 10:00:00 13 0 Calma 7 Oeste 0 -- -- 64
2019-05-22 09:00:00 10.6 0 Calma 7 Nordeste 0 -- -- 69
2019-05-22 08:00:00 8.5 5 Este 12 Nordeste 0 -- -- 77
2019-05-22 07:00:00 6.9 8 Nordeste 13 Nordeste 0 -- -- 84
2019-05-22 06:00:00 7 5 Nordeste 11 Nordeste 0 -- -- 82
2019-05-22 05:00:00 9 0 Calma 4 Nordeste 0 -- -- 89
2019-05-22 04:00:00 9.3 0 Calma 2 Sudoeste 0 -- -- 88
2019-05-22 03:00:00 9.5 0 Calma 7 Sudeste 0 -- -- 87
2019-05-22 02:00:00 9.7 3 Sudeste 7 Oeste 0 -- -- 86
2019-05-22 01:00:00 9.6 0 Calma 9 Sudoeste 0 -- -- 85
2019-05-22 00:00:00 10.3 0 Calma 12 Sur 0 -- -- 81